This is the latest recevied weather packets stored in our database for station/object NZ3C. If no packets are shown the sender has not sent any weather packets the latest 10 day(s).
| Time | Temp. | Humidity | Pressure | Rain* | Wind** | Luminosity | Snow |
|---|---|---|---|---|---|---|---|
| 1777902116 | 20.56° C | 53% | 1019.1 hPa | 0 mm | - | 519 W/m² | - |
| 1777901815 | 20.56° C | 56% | 1018.9 hPa | 0 mm | - | 509 W/m² | - |
| 1777901512 | 20° C | 56% | 1018.9 hPa | 0 mm | - | 492 W/m² | - |
| 1777901209 | 19.44° C | 58% | 1019 hPa | 0 mm | - | 475 W/m² | - |
| 1777900907 | 19.44° C | 58% | 1018.8 hPa | 0 mm | - | 457 W/m² | - |
| 1777900604 | 18.89° C | 62% | 1019 hPa | 0 mm | - | 441 W/m² | - |
| 1777900301 | 18.89° C | 60% | 1019 hPa | 0 mm | - | 424 W/m² | - |
| 1777899997 | 18.89° C | 59% | 1018.9 hPa | 0 mm | - | 406 W/m² | - |
| 1777899694 | 18.89° C | 62% | 1018.9 hPa | 0 mm | - | 388 W/m² | - |
| 1777899392 | 17.78° C | 66% | 1018.8 hPa | 0 mm | - | 370 W/m² | - |
| 1777899090 | 17.22° C | 67% | 1019.1 hPa | 0 mm | - | 352 W/m² | - |
| 1777898786 | 17.22° C | 69% | 1019.2 hPa | 0 mm | - | 334 W/m² | - |
| 1777898484 | 17.22° C | 69% | 1019.2 hPa | 0 mm | - | 316 W/m² | - |
| 1777898182 | 16.67° C | 70% | 1019.4 hPa | 0 mm | - | 298 W/m² | - |
| 1777897879 | 16.11° C | 71% | 1019.1 hPa | 0 mm | - | 277 W/m² | - |
| 1777897575 | 15.56° C | 72% | 1019.2 hPa | 0 mm | - | 263 W/m² | - |
| 1777897270 | 15° C | 75% | 1019.2 hPa | 0 mm | - | 248 W/m² | - |
| 1777896966 | 15° C | 74% | 1019.3 hPa | 0 mm | - | 197 W/m² | - |
| 1777896663 | 13.89° C | 78% | 1019.2 hPa | 0 mm | - | 157 W/m² | - |
| 1777896360 | 13.33° C | 78% | 1019.2 hPa | 0 mm | - | 128 W/m² | - |
| 1777896058 | 13.33° C | 79% | 1019.4 hPa | 0 mm | - | 109 W/m² | - |
| 1777895756 | 12.78° C | 81% | 1019.3 hPa | 0 mm | - | 98 W/m² | - |
| 1777895453 | 12.22° C | 82% | 1019.2 hPa | 0 mm | - | 83 W/m² | - |
| 1777895151 | 11.67° C | 85% | 1019.3 hPa | 0 mm | - | 70 W/m² | - |
| 1777894848 | 11.11° C | 85% | 1019.4 hPa | 0 mm | - | 57 W/m² | - |
* Rain latest hour (hover to see other rain measurements)
** Current wind speed in m/s (hover to see current wind gust speed)